sensor_id;sensor_type;location;lat;lon;timestamp;P1;durP1;ratioP1;P2;durP2;ratioP2
27893;SDS011;15240;50.812;4.792;2023-04-07T00:01:00;16.10;;;7.27;;
27893;SDS011;15240;50.812;4.792;2023-04-07T00:03:27;14.47;;;7.40;;
27893;SDS011;15240;50.812;4.792;2023-04-07T00:05:53;12.67;;;7.33;;
27893;SDS011;15240;50.812;4.792;2023-04-07T00:08:19;14.80;;;7.40;;
27893;SDS011;15240;50.812;4.792;2023-04-07T00:10:45;13.30;;;7.03;;
27893;SDS011;15240;50.812;4.792;2023-04-07T00:13:11;18.50;;;7.40;;
27893;SDS011;15240;50.812;4.792;2023-04-07T00:15:37;15.70;;;7.67;;
27893;SDS011;15240;50.812;4.792;2023-04-07T00:18:03;14.30;;;7.30;;
27893;SDS011;15240;50.812;4.792;2023-04-07T00:20:30;14.37;;;7.37;;
27893;SDS011;15240;50.812;4.792;2023-04-07T00:22:56;13.93;;;7.47;;
27893;SDS011;15240;50.812;4.792;2023-04-07T00:25:22;19.13;;;7.90;;
27893;SDS011;15240;50.812;4.792;2023-04-07T00:27:48;13.93;;;8.07;;
27893;SDS011;15240;50.812;4.792;2023-04-07T00:30:14;15.67;;;8.83;;
27893;SDS011;15240;50.812;4.792;2023-04-07T00:32:40;15.47;;;8.43;;
27893;SDS011;15240;50.812;4.792;2023-04-07T00:35:06;19.13;;;9.07;;
27893;SDS011;15240;50.812;4.792;2023-04-07T00:37:32;17.27;;;8.63;;
27893;SDS011;15240;50.812;4.792;2023-04-07T00:39:58;15.13;;;8.63;;
27893;SDS011;15240;50.812;4.792;2023-04-07T00:42:24;17.30;;;9.63;;
27893;SDS011;15240;50.812;4.792;2023-04-07T00:44:51;19.27;;;9.23;;
27893;SDS011;15240;50.812;4.792;2023-04-07T00:47:17;16.40;;;9.43;;
27893;SDS011;15240;50.812;4.792;2023-04-07T00:49:43;20.53;;;9.43;;
27893;SDS011;15240;50.812;4.792;2023-04-07T00:52:09;22.03;;;9.60;;
27893;SDS011;15240;50.812;4.792;2023-04-07T00:54:35;19.70;;;9.67;;
27893;SDS011;15240;50.812;4.792;2023-04-07T00:57:02;21.33;;;9.93;;
27893;SDS011;15240;50.812;4.792;2023-04-07T00:59:28;19.63;;;9.10;;
27893;SDS011;15240;50.812;4.792;2023-04-07T01:02:04;17.83;;;9.77;;
27893;SDS011;15240;50.812;4.792;2023-04-07T01:07:02;22.93;;;11.40;;
27893;SDS011;15240;50.812;4.792;2023-04-07T01:09:34;20.67;;;10.97;;
27893;SDS011;15240;50.812;4.792;2023-04-07T01:14:28;25.70;;;12.77;;
27893;SDS011;15240;50.812;4.792;2023-04-07T01:16:57;24.43;;;12.40;;
27893;SDS011;15240;50.812;4.792;2023-04-07T01:22:18;31.00;;;14.63;;
27893;SDS011;15240;50.812;4.792;2023-04-07T01:25:10;31.07;;;13.87;;
27893;SDS011;15240;50.812;4.792;2023-04-07T01:30:27;35.10;;;16.20;;
27893;SDS011;15240;50.812;4.792;2023-04-07T01:32:54;32.83;;;16.80;;
27893;SDS011;15240;50.812;4.792;2023-04-07T01:35:21;32.70;;;17.67;;
27893;SDS011;15240;50.812;4.792;2023-04-07T01:37:47;30.80;;;16.73;;
27893;SDS011;15240;50.812;4.792;2023-04-07T01:40:15;32.93;;;16.93;;
27893;SDS011;15240;50.812;4.792;2023-04-07T01:42:41;37.47;;;18.23;;
27893;SDS011;15240;50.812;4.792;2023-04-07T01:45:07;33.93;;;17.13;;
27893;SDS011;15240;50.812;4.792;2023-04-07T01:47:34;34.97;;;17.93;;
27893;SDS011;15240;50.812;4.792;2023-04-07T01:50:01;29.63;;;16.40;;
27893;SDS011;15240;50.812;4.792;2023-04-07T01:52:33;34.27;;;18.13;;
27893;SDS011;15240;50.812;4.792;2023-04-07T01:54:59;44.07;;;19.77;;
27893;SDS011;15240;50.812;4.792;2023-04-07T01:57:25;41.50;;;19.43;;
27893;SDS011;15240;50.812;4.792;2023-04-07T01:59:52;38.17;;;19.13;;
27893;SDS011;15240;50.812;4.792;2023-04-07T02:02:18;42.93;;;20.40;;
27893;SDS011;15240;50.812;4.792;2023-04-07T02:04:50;44.83;;;21.33;;
27893;SDS011;15240;50.812;4.792;2023-04-07T02:07:18;45.53;;;22.43;;
27893;SDS011;15240;50.812;4.792;2023-04-07T02:09:45;46.63;;;24.17;;
27893;SDS011;15240;50.812;4.792;2023-04-07T02:12:12;47.03;;;22.53;;
27893;SDS011;15240;50.812;4.792;2023-04-07T02:14:39;48.37;;;22.83;;
27893;SDS011;15240;50.812;4.792;2023-04-07T02:17:05;46.87;;;24.07;;
27893;SDS011;15240;50.812;4.792;2023-04-07T02:19:32;52.00;;;24.00;;
27893;SDS011;15240;50.812;4.792;2023-04-07T02:22:00;48.83;;;23.87;;
27893;SDS011;15240;50.812;4.792;2023-04-07T02:24:27;52.40;;;24.07;;
27893;SDS011;15240;50.812;4.792;2023-04-07T02:26:53;52.90;;;24.03;;
27893;SDS011;15240;50.812;4.792;2023-04-07T02:29:21;46.23;;;23.47;;
27893;SDS011;15240;50.812;4.792;2023-04-07T02:31:47;55.27;;;24.53;;
27893;SDS011;15240;50.812;4.792;2023-04-07T02:34:13;50.10;;;24.23;;
27893;SDS011;15240;50.812;4.792;2023-04-07T02:36:39;50.83;;;24.60;;
27893;SDS011;15240;50.812;4.792;2023-04-07T02:39:05;50.23;;;23.60;;
27893;SDS011;15240;50.812;4.792;2023-04-07T02:41:31;49.40;;;24.10;;
27893;SDS011;15240;50.812;4.792;2023-04-07T02:43:58;50.33;;;24.57;;
27893;SDS011;15240;50.812;4.792;2023-04-07T02:46:24;53.10;;;24.97;;
27893;SDS011;15240;50.812;4.792;2023-04-07T02:48:50;47.33;;;25.33;;
27893;SDS011;15240;50.812;4.792;2023-04-07T02:51:16;53.03;;;25.50;;
27893;SDS011;15240;50.812;4.792;2023-04-07T02:53:42;57.63;;;25.63;;
27893;SDS011;15240;50.812;4.792;2023-04-07T02:56:08;54.50;;;25.40;;
27893;SDS011;15240;50.812;4.792;2023-04-07T02:58:34;50.30;;;25.20;;
27893;SDS011;15240;50.812;4.792;2023-04-07T03:01:01;51.07;;;25.33;;
27893;SDS011;15240;50.812;4.792;2023-04-07T03:03:27;51.63;;;25.60;;
27893;SDS011;15240;50.812;4.792;2023-04-07T03:05:53;55.77;;;26.17;;
27893;SDS011;15240;50.812;4.792;2023-04-07T03:08:19;52.03;;;26.63;;
27893;SDS011;15240;50.812;4.792;2023-04-07T03:10:45;54.67;;;26.63;;
27893;SDS011;15240;50.812;4.792;2023-04-07T03:13:11;54.50;;;25.80;;
27893;SDS011;15240;50.812;4.792;2023-04-07T03:15:40;59.47;;;27.00;;
27893;SDS011;15240;50.812;4.792;2023-04-07T03:18:07;53.30;;;26.43;;
27893;SDS011;15240;50.812;4.792;2023-04-07T03:20:33;58.17;;;27.63;;
27893;SDS011;15240;50.812;4.792;2023-04-07T03:23:00;61.37;;;28.43;;
27893;SDS011;15240;50.812;4.792;2023-04-07T03:25:26;63.93;;;27.57;;
27893;SDS011;15240;50.812;4.792;2023-04-07T03:27:52;54.80;;;27.23;;
27893;SDS011;15240;50.812;4.792;2023-04-07T03:30:18;56.93;;;28.37;;
27893;SDS011;15240;50.812;4.792;2023-04-07T03:32:45;59.73;;;29.70;;
27893;SDS011;15240;50.812;4.792;2023-04-07T03:35:11;53.93;;;26.97;;
27893;SDS011;15240;50.812;4.792;2023-04-07T03:37:37;55.93;;;27.33;;
27893;SDS011;15240;50.812;4.792;2023-04-07T03:40:03;56.87;;;26.73;;
27893;SDS011;15240;50.812;4.792;2023-04-07T03:42:29;54.47;;;27.80;;
27893;SDS011;15240;50.812;4.792;2023-04-07T03:44:55;57.87;;;28.30;;
27893;SDS011;15240;50.812;4.792;2023-04-07T03:47:21;59.23;;;28.97;;
27893;SDS011;15240;50.812;4.792;2023-04-07T03:49:47;60.73;;;30.97;;
27893;SDS011;15240;50.812;4.792;2023-04-07T03:52:14;62.77;;;30.53;;
27893;SDS011;15240;50.812;4.792;2023-04-07T03:54:40;65.00;;;30.20;;
27893;SDS011;15240;50.812;4.792;2023-04-07T03:57:06;61.53;;;31.10;;
27893;SDS011;15240;50.812;4.792;2023-04-07T03:59:32;61.00;;;30.97;;
27893;SDS011;15240;50.812;4.792;2023-04-07T04:01:58;62.60;;;31.53;;
27893;SDS011;15240;50.812;4.792;2023-04-07T04:04:25;63.40;;;31.07;;
27893;SDS011;15240;50.812;4.792;2023-04-07T04:06:51;70.10;;;33.20;;
27893;SDS011;15240;50.812;4.792;2023-04-07T04:09:17;64.27;;;33.20;;
27893;SDS011;15240;50.812;4.792;2023-04-07T04:11:43;71.40;;;32.20;;
27893;SDS011;15240;50.812;4.792;2023-04-07T04:14:09;69.80;;;33.00;;
27893;SDS011;15240;50.812;4.792;2023-04-07T04:16:35;66.93;;;35.60;;
27893;SDS011;15240;50.812;4.792;2023-04-07T04:19:01;75.70;;;36.63;;
27893;SDS011;15240;50.812;4.792;2023-04-07T04:21:28;67.90;;;34.33;;
27893;SDS011;15240;50.812;4.792;2023-04-07T04:23:54;67.80;;;33.33;;
27893;SDS011;15240;50.812;4.792;2023-04-07T04:26:20;71.93;;;34.87;;
27893;SDS011;15240;50.812;4.792;2023-04-07T04:28:49;72.17;;;35.03;;
27893;SDS011;15240;50.812;4.792;2023-04-07T04:31:16;67.83;;;34.87;;
27893;SDS011;15240;50.812;4.792;2023-04-07T04:33:42;79.63;;;37.00;;
27893;SDS011;15240;50.812;4.792;2023-04-07T04:36:08;75.57;;;36.30;;
27893;SDS011;15240;50.812;4.792;2023-04-07T04:38:34;71.60;;;36.63;;
27893;SDS011;15240;50.812;4.792;2023-04-07T04:41:00;71.53;;;35.17;;
27893;SDS011;15240;50.812;4.792;2023-04-07T04:43:27;73.40;;;36.90;;
27893;SDS011;15240;50.812;4.792;2023-04-07T04:45:53;79.03;;;37.93;;
27893;SDS011;15240;50.812;4.792;2023-04-07T04:48:20;82.27;;;38.73;;
27893;SDS011;15240;50.812;4.792;2023-04-07T04:50:46;77.53;;;37.60;;
27893;SDS011;15240;50.812;4.792;2023-04-07T04:53:12;77.30;;;38.10;;
27893;SDS011;15240;50.812;4.792;2023-04-07T04:55:38;76.17;;;37.10;;
27893;SDS011;15240;50.812;4.792;2023-04-07T04:58:05;76.57;;;36.87;;
27893;SDS011;15240;50.812;4.792;2023-04-07T05:00:31;80.83;;;39.03;;
27893;SDS011;15240;50.812;4.792;2023-04-07T05:02:57;75.83;;;39.23;;
27893;SDS011;15240;50.812;4.792;2023-04-07T05:05:23;84.40;;;38.43;;
27893;SDS011;15240;50.812;4.792;2023-04-07T05:07:49;74.57;;;35.67;;
27893;SDS011;15240;50.812;4.792;2023-04-07T05:10:15;74.13;;;38.27;;
27893;SDS011;15240;50.812;4.792;2023-04-07T05:12:41;84.23;;;39.03;;
27893;SDS011;15240;50.812;4.792;2023-04-07T05:15:08;76.93;;;38.20;;
27893;SDS011;15240;50.812;4.792;2023-04-07T05:17:34;78.63;;;38.40;;
27893;SDS011;15240;50.812;4.792;2023-04-07T05:20:00;77.90;;;38.17;;
27893;SDS011;15240;50.812;4.792;2023-04-07T05:22:26;71.63;;;38.17;;
27893;SDS011;15240;50.812;4.792;2023-04-07T05:24:52;77.93;;;37.77;;
27893;SDS011;15240;50.812;4.792;2023-04-07T05:27:18;75.83;;;37.47;;
27893;SDS011;15240;50.812;4.792;2023-04-07T05:29:44;71.27;;;37.40;;
27893;SDS011;15240;50.812;4.792;2023-04-07T05:32:10;79.20;;;38.03;;
27893;SDS011;15240;50.812;4.792;2023-04-07T05:34:36;76.67;;;37.27;;
27893;SDS011;15240;50.812;4.792;2023-04-07T05:37:03;76.77;;;38.37;;
27893;SDS011;15240;50.812;4.792;2023-04-07T05:39:29;77.77;;;39.37;;
27893;SDS011;15240;50.812;4.792;2023-04-07T05:41:56;83.60;;;40.37;;
27893;SDS011;15240;50.812;4.792;2023-04-07T05:44:22;83.00;;;39.73;;
27893;SDS011;15240;50.812;4.792;2023-04-07T05:46:48;77.20;;;39.57;;
27893;SDS011;15240;50.812;4.792;2023-04-07T05:49:14;74.27;;;37.70;;
27893;SDS011;15240;50.812;4.792;2023-04-07T05:51:40;71.83;;;37.47;;
27893;SDS011;15240;50.812;4.792;2023-04-07T05:54:06;80.30;;;39.97;;
27893;SDS011;15240;50.812;4.792;2023-04-07T05:56:32;78.47;;;38.97;;
27893;SDS011;15240;50.812;4.792;2023-04-07T05:58:58;72.50;;;37.07;;
27893;SDS011;15240;50.812;4.792;2023-04-07T06:01:25;78.07;;;40.00;;
27893;SDS011;15240;50.812;4.792;2023-04-07T06:03:52;76.37;;;37.90;;
27893;SDS011;15240;50.812;4.792;2023-04-07T06:06:18;68.83;;;36.40;;
27893;SDS011;15240;50.812;4.792;2023-04-07T06:08:44;66.30;;;34.87;;
27893;SDS011;15240;50.812;4.792;2023-04-07T06:11:11;69.97;;;36.23;;
27893;SDS011;15240;50.812;4.792;2023-04-07T06:13:37;60.57;;;33.63;;
27893;SDS011;15240;50.812;4.792;2023-04-07T06:16:03;59.67;;;32.93;;
27893;SDS011;15240;50.812;4.792;2023-04-07T06:18:30;58.13;;;31.67;;
27893;SDS011;15240;50.812;4.792;2023-04-07T06:20:57;50.70;;;29.40;;
27893;SDS011;15240;50.812;4.792;2023-04-07T06:23:23;50.93;;;29.77;;
27893;SDS011;15240;50.812;4.792;2023-04-07T06:25:49;52.90;;;28.37;;
27893;SDS011;15240;50.812;4.792;2023-04-07T06:28:17;52.97;;;27.97;;
27893;SDS011;15240;50.812;4.792;2023-04-07T06:30:43;47.87;;;26.27;;
27893;SDS011;15240;50.812;4.792;2023-04-07T06:35:47;46.40;;;26.03;;
27893;SDS011;15240;50.812;4.792;2023-04-07T06:38:14;43.77;;;25.63;;
27893;SDS011;15240;50.812;4.792;2023-04-07T06:41:04;41.90;;;24.43;;
27893;SDS011;15240;50.812;4.792;2023-04-07T06:43:43;40.30;;;23.57;;
27893;SDS011;15240;50.812;4.792;2023-04-07T06:47:11;39.17;;;22.77;;
27893;SDS011;15240;50.812;4.792;2023-04-07T06:50:24;38.83;;;21.73;;
27893;SDS011;15240;50.812;4.792;2023-04-07T06:53:33;38.70;;;22.23;;
27893;SDS011;15240;50.812;4.792;2023-04-07T06:56:42;42.80;;;24.17;;
27893;SDS011;15240;50.812;4.792;2023-04-07T06:59:32;41.50;;;22.37;;
27893;SDS011;15240;50.812;4.792;2023-04-07T07:02:43;36.83;;;22.03;;
27893;SDS011;15240;50.812;4.792;2023-04-07T07:05:10;36.30;;;20.83;;
27893;SDS011;15240;50.812;4.792;2023-04-07T07:07:37;38.73;;;21.63;;
27893;SDS011;15240;50.812;4.792;2023-04-07T07:10:07;34.73;;;20.93;;
27893;SDS011;15240;50.812;4.792;2023-04-07T07:12:53;40.30;;;21.67;;
27893;SDS011;15240;50.812;4.792;2023-04-07T07:15:22;38.97;;;22.77;;
27893;SDS011;15240;50.812;4.792;2023-04-07T07:17:50;37.27;;;21.47;;
27893;SDS011;15240;50.812;4.792;2023-04-07T07:20:32;35.87;;;20.33;;
27893;SDS011;15240;50.812;4.792;2023-04-07T07:22:58;33.03;;;18.27;;
27893;SDS011;15240;50.812;4.792;2023-04-07T07:25:25;32.33;;;18.50;;
27893;SDS011;15240;50.812;4.792;2023-04-07T07:27:52;29.07;;;17.60;;
27893;SDS011;15240;50.812;4.792;2023-04-07T07:30:20;34.47;;;18.03;;
27893;SDS011;15240;50.812;4.792;2023-04-07T07:32:46;32.87;;;19.57;;
27893;SDS011;15240;50.812;4.792;2023-04-07T07:35:13;31.67;;;18.67;;
27893;SDS011;15240;50.812;4.792;2023-04-07T07:37:42;33.43;;;18.80;;
27893;SDS011;15240;50.812;4.792;2023-04-07T07:40:19;35.43;;;19.87;;
27893;SDS011;15240;50.812;4.792;2023-04-07T07:43:01;31.90;;;18.93;;
27893;SDS011;15240;50.812;4.792;2023-04-07T07:45:31;35.27;;;19.27;;
27893;SDS011;15240;50.812;4.792;2023-04-07T07:48:25;36.90;;;19.47;;
27893;SDS011;15240;50.812;4.792;2023-04-07T07:51:17;29.70;;;17.77;;
27893;SDS011;15240;50.812;4.792;2023-04-07T07:53:45;28.37;;;17.13;;
27893;SDS011;15240;50.812;4.792;2023-04-07T07:56:15;31.73;;;16.37;;
27893;SDS011;15240;50.812;4.792;2023-04-07T07:58:43;27.67;;;16.53;;
27893;SDS011;15240;50.812;4.792;2023-04-07T08:01:34;36.47;;;17.80;;
27893;SDS011;15240;50.812;4.792;2023-04-07T08:04:19;26.67;;;15.63;;
27893;SDS011;15240;50.812;4.792;2023-04-07T08:06:55;26.23;;;16.73;;
27893;SDS011;15240;50.812;4.792;2023-04-07T08:09:22;26.30;;;17.20;;
27893;SDS011;15240;50.812;4.792;2023-04-07T08:12:21;26.37;;;16.57;;
27893;SDS011;15240;50.812;4.792;2023-04-07T08:14:50;25.03;;;16.57;;
27893;SDS011;15240;50.812;4.792;2023-04-07T08:17:49;39.17;;;17.03;;
27893;SDS011;15240;50.812;4.792;2023-04-07T08:24:00;23.20;;;17.37;;
27893;SDS011;15240;50.812;4.792;2023-04-07T08:27:05;26.50;;;17.57;;
27893;SDS011;15240;50.812;4.792;2023-04-07T08:30:03;25.73;;;18.00;;
27893;SDS011;15240;50.812;4.792;2023-04-07T08:36:03;24.93;;;18.83;;
27893;SDS011;15240;50.812;4.792;2023-04-07T08:39:09;26.47;;;19.07;;
27893;SDS011;15240;50.812;4.792;2023-04-07T08:50:52;29.27;;;19.07;;
27893;SDS011;15240;50.812;4.792;2023-04-07T08:53:22;30.67;;;19.87;;
27893;SDS011;15240;50.812;4.792;2023-04-07T08:55:48;27.83;;;17.27;;
27893;SDS011;15240;50.812;4.792;2023-04-07T08:58:14;23.40;;;16.53;;
27893;SDS011;15240;50.812;4.792;2023-04-07T09:00:44;28.30;;;17.33;;
27893;SDS011;15240;50.812;4.792;2023-04-07T09:03:17;26.77;;;17.70;;
27893;SDS011;15240;50.812;4.792;2023-04-07T09:05:48;21.27;;;16.30;;
27893;SDS011;15240;50.812;4.792;2023-04-07T09:08:35;20.23;;;14.63;;
27893;SDS011;15240;50.812;4.792;2023-04-07T09:11:08;22.20;;;15.00;;
27893;SDS011;15240;50.812;4.792;2023-04-07T09:13:35;24.03;;;15.03;;
27893;SDS011;15240;50.812;4.792;2023-04-07T09:16:02;23.87;;;15.40;;
27893;SDS011;15240;50.812;4.792;2023-04-07T09:18:28;23.03;;;16.47;;
27893;SDS011;15240;50.812;4.792;2023-04-07T09:23:28;22.03;;;16.20;;
27893;SDS011;15240;50.812;4.792;2023-04-07T09:25:55;27.27;;;16.70;;
27893;SDS011;15240;50.812;4.792;2023-04-07T09:28:23;34.93;;;18.47;;
27893;SDS011;15240;50.812;4.792;2023-04-07T09:30:52;35.97;;;18.70;;
27893;SDS011;15240;50.812;4.792;2023-04-07T09:33:28;23.10;;;16.00;;
27893;SDS011;15240;50.812;4.792;2023-04-07T09:35:54;58.40;;;19.87;;
27893;SDS011;15240;50.812;4.792;2023-04-07T09:38:21;29.73;;;17.10;;
27893;SDS011;15240;50.812;4.792;2023-04-07T09:40:47;28.63;;;15.33;;
27893;SDS011;15240;50.812;4.792;2023-04-07T09:43:14;30.53;;;15.23;;
27893;SDS011;15240;50.812;4.792;2023-04-07T09:45:41;19.07;;;12.07;;
27893;SDS011;15240;50.812;4.792;2023-04-07T09:48:07;18.70;;;12.57;;
27893;SDS011;15240;50.812;4.792;2023-04-07T09:50:42;17.93;;;12.23;;
27893;SDS011;15240;50.812;4.792;2023-04-07T09:53:13;15.57;;;10.10;;
27893;SDS011;15240;50.812;4.792;2023-04-07T09:55:39;48.97;;;13.70;;
27893;SDS011;15240;50.812;4.792;2023-04-07T09:58:06;28.27;;;11.27;;
27893;SDS011;15240;50.812;4.792;2023-04-07T10:00:33;11.67;;;8.00;;
27893;SDS011;15240;50.812;4.792;2023-04-07T10:03:00;22.37;;;8.37;;
27893;SDS011;15240;50.812;4.792;2023-04-07T10:05:28;14.07;;;7.00;;
27893;SDS011;15240;50.812;4.792;2023-04-07T10:07:56;39.53;;;10.27;;
27893;SDS011;15240;50.812;4.792;2023-04-07T10:10:22;44.60;;;10.37;;
27893;SDS011;15240;50.812;4.792;2023-04-07T10:12:49;13.30;;;7.47;;
27893;SDS011;15240;50.812;4.792;2023-04-07T10:15:18;12.90;;;7.77;;
27893;SDS011;15240;50.812;4.792;2023-04-07T10:17:45;10.90;;;7.10;;
27893;SDS011;15240;50.812;4.792;2023-04-07T10:20:18;10.47;;;7.03;;
27893;SDS011;15240;50.812;4.792;2023-04-07T10:22:45;11.67;;;7.67;;
27893;SDS011;15240;50.812;4.792;2023-04-07T10:25:13;9.80;;;6.23;;
27893;SDS011;15240;50.812;4.792;2023-04-07T10:27:44;9.03;;;6.30;;
27893;SDS011;15240;50.812;4.792;2023-04-07T10:30:26;11.47;;;6.17;;
27893;SDS011;15240;50.812;4.792;2023-04-07T10:32:53;9.83;;;5.43;;
27893;SDS011;15240;50.812;4.792;2023-04-07T10:35:19;10.50;;;5.33;;
27893;SDS011;15240;50.812;4.792;2023-04-07T10:40:31;11.87;;;5.73;;
27893;SDS011;15240;50.812;4.792;2023-04-07T10:42:57;9.20;;;4.97;;
27893;SDS011;15240;50.812;4.792;2023-04-07T10:48:09;7.63;;;5.10;;
27893;SDS011;15240;50.812;4.792;2023-04-07T10:50:35;7.57;;;4.83;;
27893;SDS011;15240;50.812;4.792;2023-04-07T10:55:35;7.20;;;4.40;;
27893;SDS011;15240;50.812;4.792;2023-04-07T11:00:40;8.40;;;4.60;;
27893;SDS011;15240;50.812;4.792;2023-04-07T11:03:12;8.73;;;4.73;;
27893;SDS011;15240;50.812;4.792;2023-04-07T11:05:39;9.07;;;4.53;;
27893;SDS011;15240;50.812;4.792;2023-04-07T11:08:05;6.70;;;4.30;;
27893;SDS011;15240;50.812;4.792;2023-04-07T11:10:32;9.27;;;4.30;;
27893;SDS011;15240;50.812;4.792;2023-04-07T11:12:58;7.47;;;4.20;;
27893;SDS011;15240;50.812;4.792;2023-04-07T11:15:25;8.80;;;4.10;;
27893;SDS011;15240;50.812;4.792;2023-04-07T11:24:06;8.37;;;4.23;;
27893;SDS011;15240;50.812;4.792;2023-04-07T11:26:38;9.50;;;4.50;;
27893;SDS011;15240;50.812;4.792;2023-04-07T11:29:45;10.30;;;5.27;;
27893;SDS011;15240;50.812;4.792;2023-04-07T11:32:47;9.13;;;4.90;;
27893;SDS011;15240;50.812;4.792;2023-04-07T11:35:13;13.40;;;6.07;;
27893;SDS011;15240;50.812;4.792;2023-04-07T11:37:40;10.73;;;5.90;;
27893;SDS011;15240;50.812;4.792;2023-04-07T11:40:06;12.07;;;5.83;;
27893;SDS011;15240;50.812;4.792;2023-04-07T11:42:34;10.47;;;5.67;;
27893;SDS011;15240;50.812;4.792;2023-04-07T11:45:00;12.27;;;6.10;;
27893;SDS011;15240;50.812;4.792;2023-04-07T11:47:36;10.90;;;5.07;;
27893;SDS011;15240;50.812;4.792;2023-04-07T11:50:02;9.50;;;5.03;;
27893;SDS011;15240;50.812;4.792;2023-04-07T11:52:28;10.93;;;5.20;;
27893;SDS011;15240;50.812;4.792;2023-04-07T11:55:05;9.10;;;4.37;;
27893;SDS011;15240;50.812;4.792;2023-04-07T11:57:31;7.83;;;3.73;;
27893;SDS011;15240;50.812;4.792;2023-04-07T12:02:33;10.70;;;3.70;;
27893;SDS011;15240;50.812;4.792;2023-04-07T12:04:59;6.03;;;3.10;;
27893;SDS011;15240;50.812;4.792;2023-04-07T12:07:25;7.73;;;3.30;;
27893;SDS011;15240;50.812;4.792;2023-04-07T12:09:55;10.10;;;3.97;;
27893;SDS011;15240;50.812;4.792;2023-04-07T12:12:24;8.03;;;3.40;;
27893;SDS011;15240;50.812;4.792;2023-04-07T12:14:51;14.93;;;3.33;;
27893;SDS011;15240;50.812;4.792;2023-04-07T12:17:24;9.00;;;2.73;;
27893;SDS011;15240;50.812;4.792;2023-04-07T12:19:51;8.07;;;2.53;;
27893;SDS011;15240;50.812;4.792;2023-04-07T12:22:17;4.90;;;2.40;;
27893;SDS011;15240;50.812;4.792;2023-04-07T12:24:43;8.07;;;2.40;;
27893;SDS011;15240;50.812;4.792;2023-04-07T12:27:10;5.73;;;1.60;;
27893;SDS011;15240;50.812;4.792;2023-04-07T12:29:36;5.97;;;1.93;;
27893;SDS011;15240;50.812;4.792;2023-04-07T12:32:05;4.70;;;1.80;;
27893;SDS011;15240;50.812;4.792;2023-04-07T12:34:31;5.90;;;2.23;;
27893;SDS011;15240;50.812;4.792;2023-04-07T12:36:58;7.77;;;2.30;;
27893;SDS011;15240;50.812;4.792;2023-04-07T12:39:24;7.37;;;2.10;;
27893;SDS011;15240;50.812;4.792;2023-04-07T12:41:51;8.57;;;2.60;;
27893;SDS011;15240;50.812;4.792;2023-04-07T12:44:17;9.30;;;3.87;;
27893;SDS011;15240;50.812;4.792;2023-04-07T12:46:43;10.60;;;4.57;;
27893;SDS011;15240;50.812;4.792;2023-04-07T12:49:09;12.13;;;4.70;;
27893;SDS011;15240;50.812;4.792;2023-04-07T12:51:35;10.90;;;4.17;;
27893;SDS011;15240;50.812;4.792;2023-04-07T12:54:03;9.67;;;4.10;;
27893;SDS011;15240;50.812;4.792;2023-04-07T12:56:29;10.00;;;3.50;;
27893;SDS011;15240;50.812;4.792;2023-04-07T12:58:56;10.10;;;4.27;;
27893;SDS011;15240;50.812;4.792;2023-04-07T13:01:22;11.17;;;4.63;;
27893;SDS011;15240;50.812;4.792;2023-04-07T13:03:48;11.97;;;4.73;;
27893;SDS011;15240;50.812;4.792;2023-04-07T13:06:15;9.30;;;4.63;;
27893;SDS011;15240;50.812;4.792;2023-04-07T13:08:41;11.33;;;4.57;;
27893;SDS011;15240;50.812;4.792;2023-04-07T13:11:07;11.27;;;4.40;;
27893;SDS011;15240;50.812;4.792;2023-04-07T13:13:33;10.93;;;5.00;;
27893;SDS011;15240;50.812;4.792;2023-04-07T13:15:59;10.80;;;5.13;;
27893;SDS011;15240;50.812;4.792;2023-04-07T13:18:25;13.50;;;4.57;;
27893;SDS011;15240;50.812;4.792;2023-04-07T13:20:51;16.97;;;4.80;;
27893;SDS011;15240;50.812;4.792;2023-04-07T13:23:17;7.73;;;4.07;;
27893;SDS011;15240;50.812;4.792;2023-04-07T13:25:44;11.33;;;4.23;;
27893;SDS011;15240;50.812;4.792;2023-04-07T13:28:10;8.17;;;4.03;;
27893;SDS011;15240;50.812;4.792;2023-04-07T13:30:38;13.60;;;4.50;;
27893;SDS011;15240;50.812;4.792;2023-04-07T13:33:05;12.70;;;4.20;;
27893;SDS011;15240;50.812;4.792;2023-04-07T13:35:31;10.50;;;4.10;;
27893;SDS011;15240;50.812;4.792;2023-04-07T13:38:00;12.23;;;3.90;;
27893;SDS011;15240;50.812;4.792;2023-04-07T13:40:27;7.83;;;4.00;;
27893;SDS011;15240;50.812;4.792;2023-04-07T13:42:53;10.80;;;3.73;;
27893;SDS011;15240;50.812;4.792;2023-04-07T13:45:19;8.17;;;3.50;;
27893;SDS011;15240;50.812;4.792;2023-04-07T13:47:45;8.47;;;3.30;;
27893;SDS011;15240;50.812;4.792;2023-04-07T13:50:11;13.10;;;3.10;;
27893;SDS011;15240;50.812;4.792;2023-04-07T13:52:37;6.27;;;2.70;;
27893;SDS011;15240;50.812;4.792;2023-04-07T13:55:03;8.87;;;3.00;;
27893;SDS011;15240;50.812;4.792;2023-04-07T13:57:30;13.00;;;3.30;;
27893;SDS011;15240;50.812;4.792;2023-04-07T13:59:56;10.37;;;3.93;;
27893;SDS011;15240;50.812;4.792;2023-04-07T14:02:22;10.00;;;3.20;;
27893;SDS011;15240;50.812;4.792;2023-04-07T14:04:49;8.73;;;3.10;;
27893;SDS011;15240;50.812;4.792;2023-04-07T14:07:16;11.57;;;2.77;;
27893;SDS011;15240;50.812;4.792;2023-04-07T14:09:42;9.87;;;2.67;;
27893;SDS011;15240;50.812;4.792;2023-04-07T14:12:08;7.13;;;3.20;;
27893;SDS011;15240;50.812;4.792;2023-04-07T14:14:35;8.30;;;2.70;;
27893;SDS011;15240;50.812;4.792;2023-04-07T14:17:03;5.50;;;2.93;;
27893;SDS011;15240;50.812;4.792;2023-04-07T14:19:30;9.77;;;3.03;;
27893;SDS011;15240;50.812;4.792;2023-04-07T14:21:57;25.87;;;4.97;;
27893;SDS011;15240;50.812;4.792;2023-04-07T14:24:24;32.33;;;5.00;;
27893;SDS011;15240;50.812;4.792;2023-04-07T14:26:50;45.53;;;5.47;;
27893;SDS011;15240;50.812;4.792;2023-04-07T14:29:18;10.23;;;3.27;;
27893;SDS011;15240;50.812;4.792;2023-04-07T14:31:44;49.40;;;6.33;;
27893;SDS011;15240;50.812;4.792;2023-04-07T14:34:12;15.67;;;3.90;;
27893;SDS011;15240;50.812;4.792;2023-04-07T14:36:38;48.50;;;6.37;;
27893;SDS011;15240;50.812;4.792;2023-04-07T14:39:04;20.90;;;4.17;;
27893;SDS011;15240;50.812;4.792;2023-04-07T14:41:31;8.17;;;3.47;;
27893;SDS011;15240;50.812;4.792;2023-04-07T14:43:57;14.17;;;4.13;;
27893;SDS011;15240;50.812;4.792;2023-04-07T14:46:23;48.90;;;5.70;;
27893;SDS011;15240;50.812;4.792;2023-04-07T14:48:51;7.23;;;2.83;;
27893;SDS011;15240;50.812;4.792;2023-04-07T14:51:17;6.87;;;2.80;;
27893;SDS011;15240;50.812;4.792;2023-04-07T14:53:45;9.53;;;2.73;;
27893;SDS011;15240;50.812;4.792;2023-04-07T14:56:11;15.73;;;6.93;;
27893;SDS011;15240;50.812;4.792;2023-04-07T14:58:38;7.83;;;2.53;;
27893;SDS011;15240;50.812;4.792;2023-04-07T15:01:05;6.83;;;2.67;;
27893;SDS011;15240;50.812;4.792;2023-04-07T15:03:31;7.53;;;2.23;;
27893;SDS011;15240;50.812;4.792;2023-04-07T15:05:58;12.80;;;2.60;;
27893;SDS011;15240;50.812;4.792;2023-04-07T15:08:24;19.03;;;3.00;;
27893;SDS011;15240;50.812;4.792;2023-04-07T15:10:50;5.17;;;1.67;;
27893;SDS011;15240;50.812;4.792;2023-04-07T15:13:16;5.13;;;1.80;;
27893;SDS011;15240;50.812;4.792;2023-04-07T15:15:42;5.53;;;1.80;;
27893;SDS011;15240;50.812;4.792;2023-04-07T15:18:09;5.23;;;1.60;;
27893;SDS011;15240;50.812;4.792;2023-04-07T15:20:35;3.83;;;1.40;;
27893;SDS011;15240;50.812;4.792;2023-04-07T15:23:01;3.53;;;1.33;;
27893;SDS011;15240;50.812;4.792;2023-04-07T15:25:27;7.43;;;1.50;;
27893;SDS011;15240;50.812;4.792;2023-04-07T15:27:53;3.57;;;1.30;;
27893;SDS011;15240;50.812;4.792;2023-04-07T15:30:19;3.40;;;1.50;;